createdAt,value
2022-12-12T00:00:12.863Z,14.03
2022-12-12T00:02:41.770Z,14.87
2022-12-12T00:05:11.842Z,13.87
2022-12-12T00:07:48.470Z,14.13
2022-12-12T00:10:18.332Z,13.50
2022-12-12T00:12:46.875Z,15.40
2022-12-12T00:15:15.599Z,14.57
2022-12-12T00:17:44.168Z,15.93
2022-12-12T00:20:12.846Z,15.23
2022-12-12T00:22:41.328Z,16.27
2022-12-12T00:25:10.214Z,15.37
2022-12-12T00:27:40.349Z,15.67
2022-12-12T00:30:09.707Z,14.53
2022-12-12T00:32:38.277Z,15.40
2022-12-12T00:35:07.226Z,15.43
2022-12-12T00:37:35.739Z,16.80
2022-12-12T00:40:04.647Z,16.07
2022-12-12T00:42:33.151Z,14.20
2022-12-12T00:45:03.105Z,15.37
2022-12-12T00:47:31.656Z,16.03
2022-12-12T00:50:00.263Z,14.70
2022-12-12T00:52:28.772Z,16.37
2022-12-12T00:54:57.279Z,14.13
2022-12-12T00:57:25.755Z,15.23
2022-12-12T00:59:54.362Z,16.03
2022-12-12T01:02:28.128Z,15.50
2022-12-12T01:04:57.024Z,14.93
2022-12-12T01:07:25.640Z,16.13
2022-12-12T01:09:54.296Z,15.27
2022-12-12T01:12:23.799Z,17.07
2022-12-12T01:14:52.369Z,15.80
2022-12-12T01:17:20.827Z,15.07
2022-12-12T01:19:50.696Z,15.53
2022-12-12T01:22:24.598Z,14.90
2022-12-12T01:24:56.937Z,14.73
2022-12-12T01:27:25.671Z,15.63
2022-12-12T01:29:56.191Z,14.97
2022-12-12T01:32:24.596Z,15.60
2022-12-12T01:34:54.449Z,15.20
2022-12-12T01:37:23.058Z,15.20
2022-12-12T01:39:51.537Z,14.80
2022-12-12T01:42:21.349Z,13.93
2022-12-12T01:44:51.055Z,15.20
2022-12-12T01:47:20.536Z,14.63
2022-12-12T01:49:50.728Z,15.90
2022-12-12T01:52:21.595Z,15.90
2022-12-12T01:54:52.854Z,16.07
2022-12-12T01:57:23.243Z,16.87
2022-12-12T01:59:51.918Z,14.73
2022-12-12T02:02:20.534Z,16.33
2022-12-12T02:04:49.045Z,15.30
2022-12-12T02:07:18.696Z,15.43
2022-12-12T02:09:50.647Z,15.53
2022-12-12T02:12:19.158Z,15.57
2022-12-12T02:14:49.119Z,15.13
2022-12-12T02:17:31.257Z,15.87
2022-12-12T02:20:18.598Z,14.23
2022-12-12T02:22:58.958Z,16.17
2022-12-12T02:25:40.846Z,15.17
2022-12-12T02:28:17.703Z,16.50
2022-12-12T02:31:08.138Z,15.47
2022-12-12T02:33:40.774Z,14.27
2022-12-12T02:36:14.633Z,15.57
2022-12-12T02:38:48.975Z,14.50
2022-12-12T02:41:19.952Z,15.47
2022-12-12T02:43:56.093Z,15.00
2022-12-12T02:46:27.498Z,15.50
2022-12-12T02:49:00.064Z,16.43
2022-12-12T02:51:29.690Z,16.67
2022-12-12T02:54:00.589Z,16.90
2022-12-12T02:56:45.894Z,14.90
2022-12-12T02:59:16.255Z,15.60
2022-12-12T03:01:48.380Z,16.57
2022-12-12T03:04:39.159Z,16.90
2022-12-12T03:07:29.778Z,17.43
2022-12-12T03:10:03.763Z,16.50
2022-12-12T03:12:37.472Z,17.47
2022-12-12T03:15:11.730Z,15.57
2022-12-12T03:17:43.446Z,17.40
2022-12-12T03:20:22.788Z,17.00
2022-12-12T03:22:53.815Z,17.43
2022-12-12T03:25:25.018Z,16.67
2022-12-12T03:27:57.955Z,16.17
2022-12-12T03:30:28.243Z,17.20
2022-12-12T03:33:11.797Z,16.97
2022-12-12T03:35:44.513Z,16.07
2022-12-12T03:38:15.212Z,15.63
2022-12-12T03:40:47.774Z,15.90
2022-12-12T03:43:18.652Z,15.20
2022-12-12T03:45:49.882Z,16.70
2022-12-12T03:48:21.232Z,14.73
2022-12-12T03:50:53.024Z,15.37
2022-12-12T03:53:24.329Z,14.97
2022-12-12T03:55:55.857Z,15.83
2022-12-12T03:58:29.489Z,15.30
2022-12-12T04:01:00.369Z,15.67
2022-12-12T04:03:31.840Z,14.67
2022-12-12T04:06:23.427Z,15.77
2022-12-12T04:09:10.643Z,15.53
2022-12-12T04:12:11.507Z,15.90
2022-12-12T04:14:47.362Z,16.97
2022-12-12T04:17:17.648Z,16.97
2022-12-12T04:20:07.653Z,16.40
2022-12-12T04:22:56.443Z,15.93
2022-12-12T04:25:31.885Z,16.30
2022-12-12T04:28:04.274Z,15.83
2022-12-12T04:30:34.641Z,14.70
2022-12-12T04:33:08.844Z,14.87
2022-12-12T04:35:40.204Z,15.73
2022-12-12T04:38:13.116Z,16.27
2022-12-12T04:40:44.470Z,15.77
2022-12-12T04:43:17.914Z,15.90
2022-12-12T04:45:49.221Z,14.50
2022-12-12T04:48:21.516Z,15.50
2022-12-12T04:50:51.807Z,16.73
2022-12-12T04:53:22.644Z,15.73
2022-12-12T04:55:53.541Z,15.10
2022-12-12T04:58:22.200Z,15.80
2022-12-12T05:00:56.378Z,15.93
2022-12-12T05:03:33.052Z,16.30
2022-12-12T05:06:02.942Z,16.13
2022-12-12T05:08:34.494Z,15.67
2022-12-12T05:11:06.066Z,16.10
2022-12-12T05:13:36.797Z,15.93
2022-12-12T05:16:08.877Z,14.70
2022-12-12T05:18:37.682Z,15.37
2022-12-12T05:21:06.224Z,14.73
2022-12-12T05:23:36.455Z,15.63
2022-12-12T05:26:07.917Z,16.13
2022-12-12T05:28:38.449Z,16.10
2022-12-12T05:31:07.730Z,14.27
2022-12-12T05:33:36.247Z,14.77
2022-12-12T05:36:05.309Z,15.33
2022-12-12T05:38:34.029Z,14.80
2022-12-12T05:41:04.297Z,15.20
2022-12-12T05:43:32.930Z,14.90
2022-12-12T05:46:02.883Z,14.83
2022-12-12T05:48:31.408Z,15.23
2022-12-12T05:50:59.942Z,16.20
2022-12-12T05:53:28.493Z,13.33
2022-12-12T05:55:59.580Z,15.63
2022-12-12T05:58:29.522Z,16.43
2022-12-12T06:01:03.058Z,16.87
2022-12-12T06:03:32.075Z,15.87
2022-12-12T06:06:00.644Z,15.20
2022-12-12T06:08:30.633Z,14.67
2022-12-12T06:11:00.436Z,16.30
2022-12-12T06:13:30.344Z,14.73
2022-12-12T06:15:58.994Z,14.40
2022-12-12T06:18:27.499Z,15.10
2022-12-12T06:21:03.572Z,15.67
2022-12-12T06:23:32.165Z,15.27
2022-12-12T06:26:02.614Z,13.63
2022-12-12T06:28:32.541Z,15.10
2022-12-12T06:31:02.774Z,16.47
2022-12-12T06:33:35.819Z,14.77
2022-12-12T06:36:05.215Z,14.23
2022-12-12T06:38:34.202Z,15.17
2022-12-12T06:41:06.729Z,13.70
2022-12-12T06:43:36.699Z,14.10
2022-12-12T06:46:06.796Z,14.07
2022-12-12T06:48:36.733Z,15.20
2022-12-12T06:51:10.286Z,14.90
2022-12-12T06:53:39.326Z,14.43
2022-12-12T06:56:09.918Z,13.90
2022-12-12T06:58:39.935Z,14.33
2022-12-12T07:01:08.932Z,14.83
2022-12-12T07:03:37.766Z,14.63
2022-12-12T07:06:06.889Z,14.23
2022-12-12T07:08:36.779Z,14.07
2022-12-12T07:11:06.172Z,14.70
2022-12-12T07:13:35.602Z,16.00
2022-12-12T07:16:05.772Z,16.07
2022-12-12T07:18:34.759Z,16.10
2022-12-12T07:21:05.756Z,16.43
2022-12-12T07:23:34.612Z,15.07
2022-12-12T07:26:05.335Z,15.63
2022-12-12T07:28:34.709Z,16.93
2022-12-12T07:31:07.398Z,16.10
2022-12-12T07:33:43.704Z,15.60
2022-12-12T07:36:13.615Z,17.03
2022-12-12T07:38:42.107Z,16.60
2022-12-12T07:41:12.038Z,15.57
2022-12-12T07:43:43.933Z,16.30
2022-12-12T07:46:15.341Z,14.67
2022-12-12T07:48:48.514Z,16.80
2022-12-12T07:51:17.528Z,15.63
2022-12-12T07:53:46.062Z,15.07
2022-12-12T07:56:19.963Z,14.30
2022-12-12T07:58:49.592Z,15.13
2022-12-12T08:01:19.383Z,13.17
2022-12-12T08:03:49.850Z,11.97
2022-12-12T08:06:19.192Z,12.37
2022-12-12T08:08:48.113Z,11.87
2022-12-12T08:11:22.140Z,11.17
2022-12-12T08:13:51.058Z,13.50
2022-12-12T08:16:20.537Z,14.43
2022-12-12T08:18:50.680Z,14.03
2022-12-12T08:21:25.346Z,14.50
2022-12-12T08:23:57.049Z,13.70
2022-12-12T08:26:26.149Z,14.73
2022-12-12T08:28:54.801Z,15.57
2022-12-12T08:31:25.469Z,16.87
2022-12-12T08:33:55.956Z,16.33
2022-12-12T08:36:25.223Z,15.13
2022-12-12T08:38:53.986Z,15.17
2022-12-12T08:41:25.154Z,14.87
2022-12-12T08:43:53.704Z,15.10
2022-12-12T08:46:22.988Z,13.50
2022-12-12T08:48:51.763Z,15.40
2022-12-12T08:51:22.053Z,14.33
2022-12-12T08:53:51.110Z,14.03
2022-12-12T08:56:19.730Z,14.20
2022-12-12T08:58:48.352Z,15.10
2022-12-12T09:01:18.450Z,14.07
2022-12-12T09:03:48.003Z,14.33
2022-12-12T09:06:17.128Z,14.70
2022-12-12T09:08:48.175Z,14.40
2022-12-12T09:11:18.073Z,15.23
2022-12-12T09:13:46.625Z,16.43
2022-12-12T09:16:15.615Z,16.20
2022-12-12T09:18:48.740Z,15.47
2022-12-12T09:21:18.419Z,15.07
2022-12-12T09:23:50.013Z,14.93
2022-12-12T09:26:19.460Z,13.40
2022-12-12T09:28:48.192Z,13.53
2022-12-12T09:31:16.809Z,13.20
2022-12-12T09:33:45.596Z,12.43
2022-12-12T09:36:15.139Z,11.10
2022-12-12T09:38:43.872Z,11.90
2022-12-12T09:41:16.057Z,12.07
2022-12-12T09:43:48.321Z,13.17
2022-12-12T09:46:21.622Z,12.73
2022-12-12T09:48:50.613Z,13.40
2022-12-12T09:51:20.613Z,12.90
2022-12-12T09:53:51.554Z,12.50
2022-12-12T09:56:24.552Z,12.03
2022-12-12T09:58:57.160Z,13.13
2022-12-12T10:01:31.882Z,12.50
2022-12-12T10:04:05.590Z,13.23
2022-12-12T10:06:37.898Z,12.07
2022-12-12T10:09:11.120Z,12.27
2022-12-12T10:11:51.642Z,11.83
2022-12-12T10:14:21.383Z,12.53
2022-12-12T10:16:55.863Z,11.87
2022-12-12T10:19:28.479Z,12.40
2022-12-12T10:21:58.777Z,11.63
2022-12-12T10:24:31.666Z,13.33
2022-12-12T10:27:09.599Z,12.73
2022-12-12T10:29:41.630Z,11.70
2022-12-12T10:32:18.213Z,12.30
2022-12-12T10:34:59.041Z,11.83
2022-12-12T10:37:39.252Z,11.60
2022-12-12T10:40:15.738Z,12.53
2022-12-12T10:42:49.358Z,12.50
2022-12-12T10:45:39.297Z,12.53
2022-12-12T10:48:07.821Z,11.23
2022-12-12T10:50:37.422Z,10.77
2022-12-12T10:53:08.590Z,11.30
2022-12-12T10:55:40.937Z,10.57
2022-12-12T10:58:11.001Z,10.40
2022-12-12T11:00:41.451Z,10.80
2022-12-12T11:03:28.014Z,11.67
2022-12-12T11:05:58.944Z,10.60
2022-12-12T11:08:29.270Z,10.50
2022-12-12T11:11:02.920Z,11.43
2022-12-12T11:13:39.582Z,11.30
2022-12-12T11:16:13.980Z,11.77
2022-12-12T11:18:45.322Z,11.20
2022-12-12T11:21:15.847Z,11.80
2022-12-12T11:23:55.265Z,10.80
2022-12-12T11:26:24.729Z,11.70
2022-12-12T11:28:58.506Z,11.57
2022-12-12T11:31:29.418Z,11.73
2022-12-12T11:33:59.952Z,10.87
2022-12-12T11:36:33.522Z,10.90
2022-12-12T11:39:16.473Z,11.07
2022-12-12T11:42:00.007Z,10.43
2022-12-12T11:44:34.492Z,10.70
2022-12-12T11:47:25.410Z,10.80
2022-12-12T11:49:55.335Z,10.57
2022-12-12T11:52:27.334Z,9.73
2022-12-12T11:54:57.737Z,10.40
2022-12-12T11:57:43.008Z,9.80
2022-12-12T12:00:16.973Z,9.40
2022-12-12T12:03:05.331Z,9.67
2022-12-12T12:05:42.110Z,9.13
2022-12-12T12:08:14.949Z,9.23
2022-12-12T12:10:53.688Z,6.40
2022-12-12T12:13:31.617Z,5.53
2022-12-12T12:16:08.827Z,5.70
2022-12-12T12:18:41.767Z,6.40
2022-12-12T12:21:26.154Z,5.97
2022-12-12T12:23:59.274Z,6.90
2022-12-12T12:26:32.568Z,8.10
2022-12-12T12:29:18.381Z,7.90
2022-12-12T12:31:55.373Z,7.40
2022-12-12T12:34:26.654Z,7.40
2022-12-12T12:37:07.453Z,6.90
2022-12-12T12:39:44.126Z,6.97
2022-12-12T12:42:17.001Z,7.13
2022-12-12T12:44:51.817Z,6.70
2022-12-12T12:47:29.159Z,5.93
2022-12-12T12:50:00.986Z,6.57
2022-12-12T12:52:32.918Z,5.33
2022-12-12T12:55:02.310Z,5.20
2022-12-12T12:57:33.022Z,4.80
2022-12-12T13:00:05.634Z,5.00
2022-12-12T13:02:42.914Z,5.67
2022-12-12T13:05:15.574Z,5.60
2022-12-12T13:07:48.024Z,5.10
2022-12-12T13:10:21.761Z,5.50
2022-12-12T13:12:54.172Z,5.57
2022-12-12T13:15:25.800Z,6.57
2022-12-12T13:18:01.253Z,6.50
2022-12-12T13:20:31.226Z,5.90
2022-12-12T13:23:05.634Z,5.83
2022-12-12T13:25:38.527Z,6.00
2022-12-12T13:28:12.816Z,5.40
2022-12-12T13:30:55.395Z,5.47
2022-12-12T13:33:37.546Z,4.50
2022-12-12T13:36:09.947Z,4.33
2022-12-12T13:38:39.027Z,3.30
2022-12-12T13:41:09.268Z,2.90
2022-12-12T13:43:44.607Z,3.23
2022-12-12T13:46:31.902Z,3.77
2022-12-12T13:49:04.155Z,3.50
2022-12-12T13:51:34.758Z,4.30
2022-12-12T13:54:22.670Z,3.93
2022-12-12T13:57:12.175Z,4.83
2022-12-12T14:00:29.408Z,4.97
2022-12-12T14:03:21.503Z,7.07
2022-12-12T14:05:52.041Z,11.57
2022-12-12T14:08:23.116Z,12.13
2022-12-12T14:10:56.868Z,13.90
2022-12-12T14:13:36.525Z,12.83
2022-12-12T14:16:07.438Z,13.30
2022-12-12T14:18:39.055Z,13.23
2022-12-12T14:21:10.772Z,13.57
2022-12-12T14:23:42.101Z,13.83
2022-12-12T14:26:29.733Z,14.57
2022-12-12T14:29:14.661Z,16.17
2022-12-12T14:31:47.332Z,16.00
2022-12-12T14:34:21.889Z,15.93
2022-12-12T14:37:05.401Z,16.47
2022-12-12T14:39:49.773Z,17.00
2022-12-12T14:42:23.927Z,15.77
2022-12-12T14:44:52.359Z,15.73
2022-12-12T14:47:21.299Z,17.37
2022-12-12T14:49:50.700Z,17.93
2022-12-12T14:52:22.854Z,17.23
2022-12-12T14:54:52.007Z,15.33
2022-12-12T14:57:23.221Z,16.07
2022-12-12T14:59:52.114Z,14.47
2022-12-12T15:02:24.659Z,13.90
2022-12-12T15:05:00.841Z,15.47
2022-12-12T15:07:33.740Z,15.17
2022-12-12T15:10:02.438Z,16.10
2022-12-12T15:12:37.076Z,16.50
2022-12-12T15:15:06.689Z,17.33
2022-12-12T15:17:38.724Z,17.13
2022-12-12T15:20:10.801Z,17.40
2022-12-12T15:22:40.568Z,17.90
2022-12-12T15:25:17.866Z,17.07
2022-12-12T15:27:55.264Z,16.50
2022-12-12T15:30:27.184Z,17.40
2022-12-12T15:32:59.150Z,17.80
2022-12-12T15:35:28.776Z,18.37
2022-12-12T15:37:58.392Z,18.07
2022-12-12T15:40:31.836Z,16.43
2022-12-12T15:43:02.714Z,17.83
2022-12-12T15:45:33.124Z,18.37
2022-12-12T15:48:02.374Z,18.23
2022-12-12T15:50:32.518Z,17.93
2022-12-12T15:53:02.255Z,18.47
2022-12-12T15:55:31.946Z,18.70
2022-12-12T15:58:01.786Z,17.60
2022-12-12T16:00:36.473Z,18.57
2022-12-12T16:03:07.127Z,18.73
2022-12-12T16:05:37.870Z,17.97
2022-12-12T16:08:31.299Z,17.90
2022-12-12T16:11:03.711Z,18.00
2022-12-12T16:13:41.862Z,18.53
2022-12-12T16:16:29.529Z,17.50
2022-12-12T16:18:59.291Z,16.97
2022-12-12T16:21:28.876Z,16.87
2022-12-12T16:24:10.698Z,18.97
2022-12-12T16:26:39.742Z,17.67
2022-12-12T16:29:09.662Z,18.10
2022-12-12T16:31:38.357Z,19.03
2022-12-12T16:34:07.238Z,16.87
2022-12-12T16:36:42.010Z,19.37
2022-12-12T16:39:14.550Z,18.73
2022-12-12T16:41:44.498Z,19.77
2022-12-12T16:44:15.245Z,19.23
2022-12-12T16:46:43.866Z,19.10
2022-12-12T16:49:15.512Z,18.10
2022-12-12T16:51:44.659Z,19.93
2022-12-12T16:54:16.078Z,19.67
2022-12-12T16:56:45.111Z,21.63
2022-12-12T16:59:16.478Z,20.47
2022-12-12T17:01:46.399Z,21.47
2022-12-12T17:04:19.116Z,22.17
2022-12-12T17:06:47.959Z,24.07
2022-12-12T17:09:16.432Z,23.60
2022-12-12T17:11:45.699Z,23.83
2022-12-12T17:14:18.689Z,38.17
2022-12-12T17:16:47.383Z,25.33
2022-12-12T17:19:15.917Z,23.43
2022-12-12T17:21:45.051Z,21.07
2022-12-12T17:24:14.042Z,22.03
2022-12-12T17:26:45.220Z,23.87
2022-12-12T17:29:13.803Z,23.73
2022-12-12T17:31:44.184Z,22.63
2022-12-12T17:34:14.469Z,21.33
2022-12-12T17:36:42.952Z,23.33
2022-12-12T17:39:12.232Z,24.50
2022-12-12T17:41:41.382Z,21.83
2022-12-12T17:44:10.112Z,22.17
2022-12-12T17:46:41.905Z,22.83
2022-12-12T17:49:11.764Z,22.73
2022-12-12T17:51:40.282Z,22.17
2022-12-12T17:54:09.637Z,24.00
2022-12-12T17:56:39.300Z,24.50
2022-12-12T17:59:09.950Z,22.57
2022-12-12T18:01:38.465Z,24.03
2022-12-12T18:04:07.487Z,24.90
2022-12-12T18:06:37.659Z,24.10
2022-12-12T18:09:07.190Z,25.37
2022-12-12T18:11:38.111Z,27.27
2022-12-12T18:14:09.667Z,25.70
2022-12-12T18:16:39.150Z,26.07
2022-12-12T18:19:07.726Z,25.97
2022-12-12T18:24:29.333Z,24.67
2022-12-12T18:26:59.103Z,27.93
2022-12-12T18:29:28.428Z,28.07
2022-12-12T18:31:56.997Z,27.97
2022-12-12T18:34:26.407Z,28.23
2022-12-12T18:36:56.343Z,28.63
2022-12-12T18:39:24.892Z,26.73
2022-12-12T18:41:53.561Z,26.80
2022-12-12T18:44:22.246Z,27.03
2022-12-12T18:46:51.873Z,27.73
2022-12-12T18:49:20.516Z,29.57
2022-12-12T18:51:51.876Z,28.77
2022-12-12T18:54:21.810Z,32.23
2022-12-12T18:56:50.615Z,30.10
2022-12-12T18:59:19.317Z,28.30
2022-12-12T19:01:48.743Z,29.97
2022-12-12T19:04:23.148Z,28.93
2022-12-12T19:06:53.148Z,28.90
2022-12-12T19:09:27.405Z,29.43
2022-12-12T19:12:02.320Z,28.43
2022-12-12T19:17:25.661Z,28.53
2022-12-12T19:19:55.320Z,26.97
2022-12-12T19:25:17.625Z,25.77
2022-12-12T19:27:47.735Z,24.93
2022-12-12T19:30:17.315Z,25.43
2022-12-12T19:32:49.025Z,28.90
2022-12-12T19:35:17.798Z,25.10
2022-12-12T19:37:48.516Z,25.77
2022-12-12T19:40:19.370Z,25.73
2022-12-12T19:42:48.193Z,23.23
2022-12-12T19:45:16.669Z,22.13
2022-12-12T19:47:45.108Z,23.83
2022-12-12T19:50:13.872Z,25.17
2022-12-12T19:52:43.254Z,25.23
2022-12-12T19:55:11.930Z,24.17
2022-12-12T19:57:42.149Z,25.40
2022-12-12T20:00:11.638Z,24.00
2022-12-12T20:02:40.403Z,24.63
2022-12-12T20:05:09.184Z,24.80
2022-12-12T20:07:37.933Z,23.93
2022-12-12T20:10:07.260Z,23.53
2022-12-12T20:12:35.811Z,22.50
2022-12-12T20:15:05.768Z,24.40
2022-12-12T20:17:34.349Z,24.70
2022-12-12T20:20:03.438Z,25.63
2022-12-12T20:22:32.277Z,24.20
2022-12-12T20:25:00.884Z,25.60
2022-12-12T20:27:30.012Z,26.10
2022-12-12T20:29:58.528Z,24.97
2022-12-12T20:32:30.723Z,25.20
2022-12-12T20:34:59.326Z,25.23
2022-12-12T20:37:27.815Z,22.77
2022-12-12T20:39:56.872Z,25.47
2022-12-12T20:42:25.358Z,23.50
2022-12-12T20:44:54.152Z,24.80
2022-12-12T20:47:23.212Z,23.27
2022-12-12T20:49:54.268Z,24.10
2022-12-12T20:52:22.701Z,24.10
2022-12-12T20:54:51.419Z,24.33
2022-12-12T20:57:20.216Z,22.80
2022-12-12T20:59:49.430Z,24.97
2022-12-12T21:02:18.065Z,22.67
2022-12-12T21:04:56.026Z,21.60
2022-12-12T21:07:24.820Z,24.40
2022-12-12T21:09:57.562Z,24.43
2022-12-12T21:12:26.430Z,25.03
2022-12-12T21:15:01.086Z,23.10
2022-12-12T21:17:31.509Z,23.93
2022-12-12T21:20:06.265Z,23.50
2022-12-12T21:22:35.344Z,22.90
2022-12-12T21:25:03.933Z,22.43
2022-12-12T21:27:33.269Z,23.07
2022-12-12T21:30:01.866Z,22.10
2022-12-12T21:32:30.495Z,23.33
2022-12-12T21:34:59.058Z,21.67
2022-12-12T21:37:29.996Z,21.30
2022-12-12T21:39:58.996Z,21.80
2022-12-12T21:42:27.493Z,21.03
2022-12-12T21:44:56.010Z,22.53
2022-12-12T21:47:24.766Z,22.30
2022-12-12T21:49:53.320Z,21.73
2022-12-12T21:52:21.997Z,23.07
2022-12-12T21:54:52.203Z,23.30
2022-12-12T21:57:24.779Z,22.40
2022-12-12T21:59:53.577Z,21.97
2022-12-12T22:02:22.194Z,21.90
2022-12-12T22:04:51.189Z,20.70
2022-12-12T22:07:22.343Z,21.23
2022-12-12T22:09:57.073Z,20.57
2022-12-12T22:12:27.611Z,20.37
2022-12-12T22:14:56.097Z,19.97
2022-12-12T22:17:24.587Z,19.80
2022-12-12T22:19:53.068Z,19.90
2022-12-12T22:22:21.658Z,20.37
2022-12-12T22:24:50.364Z,21.57
2022-12-12T22:27:20.182Z,18.80
2022-12-12T22:29:48.604Z,19.47
2022-12-12T22:32:17.088Z,20.37
2022-12-12T22:34:46.859Z,19.50
2022-12-12T22:37:15.334Z,20.57
2022-12-12T22:39:43.801Z,21.13
2022-12-12T22:42:12.387Z,20.50
2022-12-12T22:44:42.288Z,22.03
2022-12-12T22:47:10.894Z,22.60
2022-12-12T22:49:39.393Z,20.43
2022-12-12T22:52:07.902Z,21.13
2022-12-12T22:54:36.939Z,21.00
2022-12-12T22:57:05.804Z,19.90
2022-12-12T22:59:34.317Z,19.67
2022-12-12T23:02:07.179Z,19.67
2022-12-12T23:04:36.392Z,19.93
2022-12-12T23:07:05.152Z,20.47
2022-12-12T23:09:34.258Z,18.77
2022-12-12T23:12:03.185Z,18.63
2022-12-12T23:14:31.896Z,17.43
2022-12-12T23:17:00.490Z,17.77
2022-12-12T23:19:30.694Z,18.33
2022-12-12T23:21:59.102Z,18.87
2022-12-12T23:24:27.649Z,18.63
2022-12-12T23:26:56.225Z,18.40
2022-12-12T23:29:26.954Z,17.23
2022-12-12T23:31:59.408Z,18.67
2022-12-12T23:34:27.962Z,18.60
2022-12-12T23:36:58.224Z,20.20
2022-12-12T23:39:27.470Z,18.50
2022-12-12T23:41:56.697Z,19.57
2022-12-12T23:44:25.532Z,17.57
2022-12-12T23:46:54.560Z,18.70
2022-12-12T23:49:24.239Z,18.00
2022-12-12T23:51:53.559Z,18.40
2022-12-12T23:54:24.155Z,18.40
2022-12-12T23:56:53.101Z,19.07
2022-12-12T23:59:21.994Z,17.87
